createdAt,value
2022-09-16T14:20:18.852Z,14.70
2022-09-16T14:25:35.315Z,14.84
2022-09-16T14:30:40.405Z,15.16
2022-09-16T14:35:50.699Z,15.36
2022-09-16T14:40:55.581Z,15.49
2022-09-16T14:46:03.439Z,15.43
2022-09-16T14:51:23.167Z,15.30
2022-09-16T14:56:30.213Z,14.90
2022-09-16T15:01:35.248Z,14.57
2022-09-16T15:06:48.818Z,14.87
2022-09-16T15:12:02.001Z,15.28
2022-09-16T15:17:10.146Z,15.58
2022-09-16T15:22:19.316Z,15.71
2022-09-16T15:27:25.990Z,15.68
2022-09-16T15:32:32.595Z,15.84
2022-09-16T15:37:40.231Z,15.71
2022-09-16T15:42:46.870Z,15.85
2022-09-16T15:48:01.233Z,15.86
2022-09-16T15:53:13.032Z,15.92
2022-09-16T15:58:23.307Z,15.82
2022-09-16T16:03:29.509Z,15.67
2022-09-16T16:08:47.288Z,15.63
2022-09-16T16:13:52.322Z,15.55
2022-09-16T16:18:57.693Z,15.49
2022-09-16T16:24:05.582Z,15.43
2022-09-16T16:29:10.408Z,15.38
2022-09-16T16:34:15.415Z,15.40
2022-09-16T16:39:25.412Z,15.29
2022-09-16T16:44:30.549Z,15.20
2022-09-16T16:49:36.615Z,14.98
2022-09-16T16:54:44.144Z,14.66
2022-09-16T16:59:48.982Z,14.48
2022-09-16T20:43:10.261Z,10.40
2022-09-16T20:48:15.121Z,10.30
2022-09-16T20:53:20.506Z,10.24
2022-09-16T20:58:27.881Z,10.22
2022-09-16T21:03:32.754Z,10.13
2022-09-16T21:08:38.061Z,10.09
2022-09-16T21:13:47.709Z,10.06
2022-09-16T21:18:57.105Z,10.08
2022-09-16T21:24:03.293Z,10.00
2022-09-16T21:29:13.270Z,10.05
2022-09-16T21:34:19.998Z,9.98
2022-09-16T21:39:25.436Z,9.96
2022-09-16T21:44:32.813Z,9.98
2022-09-16T21:49:37.580Z,10.00
2022-09-16T21:54:42.710Z,9.97
2022-09-16T21:59:50.169Z,9.93
2022-09-16T22:04:55.148Z,9.89
2022-09-16T22:09:59.964Z,9.93
2022-09-16T22:15:09.150Z,9.91
2022-09-16T22:20:14.789Z,9.85
2022-09-16T22:25:19.526Z,9.86
2022-09-16T22:30:26.821Z,9.81
2022-09-16T22:35:31.595Z,9.78
2022-09-16T22:40:37.739Z,9.71
2022-09-16T22:45:45.056Z,9.74
2022-09-16T22:50:57.763Z,9.80
2022-09-16T22:56:04.480Z,9.84
2022-09-16T23:01:15.053Z,9.89
2022-09-16T23:06:19.806Z,9.91
2022-09-16T23:11:26.419Z,9.89
2022-09-16T23:16:35.883Z,9.96
2022-09-16T23:21:42.209Z,10.02
2022-09-16T23:26:48.862Z,10.01
2022-09-16T23:31:57.381Z,10.04
2022-09-16T23:37:02.152Z,10.13
2022-09-16T23:42:07.467Z,10.15
2022-09-16T23:47:15.179Z,10.15
2022-09-16T23:52:19.923Z,10.18
2022-09-16T23:57:24.701Z,10.21
